Time;durP1;ratioP1;P1;durP2;ratioP2;P2;SDS_P1;SDS_P2;PMS_P1;PMS_P2;Temp;Humidity;BMP_temperature;BMP_pressure;BME280_temperature;BME280_humidity;BME280_pressure;Samples;Min_cycle;Max_cycle;Signal;HPM_P1;HPM_P2
2023/06/14 00:01:49;128036.00;0.43;221.94;0.00;0.00;0.62;;;;;18.10;1.00;;;;;;2260927;61;1746;-82
2023/06/14 00:04:18;142839.00;0.48;247.46;0.00;0.00;0.62;;;;;18.20;1.00;;;;;;2261148;61;1113;-80
2023/06/14 00:06:45;74464.00;0.25;129.47;0.00;0.00;0.62;;;;;18.10;1.00;;;;;;2261719;61;1298;-82
2023/06/14 00:09:12;80020.00;0.27;139.07;0.00;0.00;0.62;;;;;18.30;1.00;;;;;;2260454;61;1102;-81
2023/06/14 00:11:39;38545.00;0.13;67.37;0.00;0.00;0.62;;;;;18.40;1.00;;;;;;2259668;61;2028;-84
2023/06/14 00:14:06;39054.00;0.13;68.25;0.00;0.00;0.62;;;;;18.20;1.00;;;;;;2259870;61;1081;-83
2023/06/14 00:16:34;365978.00;1.22;631.32;0.00;0.00;0.62;;;;;18.20;1.00;;;;;;2259502;61;1229;-83
2023/06/14 00:19:03;205427.00;0.68;355.26;0.00;0.00;0.62;;;;;18.20;1.00;;;;;;2260073;61;1080;-83
2023/06/14 00:21:31;98843.00;0.33;171.57;0.00;0.00;0.62;;;;;18.20;1.00;;;;;;2259639;61;1082;-83
2023/06/14 00:23:59;86228.00;0.29;149.79;0.00;0.00;0.62;;;;;18.10;1.00;;;;;;2260132;61;1106;-82
2023/06/14 00:26:26;81330.00;0.27;141.33;0.00;0.00;0.62;;;;;18.00;1.00;;;;;;2260251;61;1352;-83
2023/06/14 00:28:53;105487.00;0.35;183.04;0.00;0.00;0.62;;;;;18.10;1.00;;;;;;2259634;61;1130;-82
2023/06/14 00:31:20;77623.00;0.26;134.93;0.00;0.00;0.62;;;;;17.90;1.00;;;;;;2259895;61;1918;-81
2023/06/14 00:33:47;232468.00;0.77;401.79;28966.00;0.10;50.79;;;;;18.00;1.00;;;;;;2259569;61;1224;-83
2023/06/14 00:36:14;341041.00;1.14;588.46;21051.00;0.07;37.09;;;;;17.70;1.00;;;;;;2259837;61;1275;-83
2023/06/14 00:38:42;10220.00;0.03;18.33;0.00;0.00;0.62;;;;;17.60;1.00;;;;;;2259722;61;1111;-82
2023/06/14 00:41:09;410038.00;1.37;707.06;98738.00;0.33;171.39;;;;;17.50;1.00;;;;;;2259956;61;1138;-83
2023/06/14 00:43:36;120355.00;0.40;208.69;0.00;0.00;0.62;;;;;17.60;1.00;;;;;;2259778;61;1293;-83
2023/06/14 00:46:03;96010.00;0.32;166.68;0.00;0.00;0.62;;;;;17.50;1.00;;;;;;2259566;61;1288;-83
2023/06/14 00:48:31;93125.00;0.31;161.70;0.00;0.00;0.62;;;;;17.60;1.00;;;;;;2259974;61;1151;-82
2023/06/14 00:51:01;227518.00;0.76;393.28;30311.00;0.10;53.12;;;;;17.50;1.00;;;;;;2260117;61;1588;-82
2023/06/14 00:53:29;167396.00;0.56;289.78;0.00;0.00;0.62;;;;;17.40;1.00;;;;;;2259488;61;1999;-82
2023/06/14 00:55:58;180836.00;0.60;312.93;0.00;0.00;0.62;;;;;17.20;1.00;;;;;;2259715;61;1382;-83
2023/06/14 00:58:25;206700.00;0.69;357.46;0.00;0.00;0.62;;;;;17.10;1.00;;;;;;2259551;61;1158;-82
2023/06/14 01:00:52;254408.00;0.85;439.53;0.00;0.00;0.62;;;;;17.00;1.00;;;;;;2259631;61;1150;-82
2023/06/14 01:03:22;198440.00;0.66;343.24;0.00;0.00;0.62;;;;;17.00;1.00;;;;;;2259442;61;1146;-83
2023/06/14 01:05:50;222978.00;0.74;385.47;0.00;0.00;0.62;;;;;17.00;1.00;;;;;;2259004;61;1483;-83
2023/06/14 01:08:29;355966.00;1.19;614.12;0.00;0.00;0.62;;;;;17.20;1.00;;;;;;2259366;61;1197;-81
2023/06/14 01:11:06;223236.00;0.74;385.91;0.00;0.00;0.62;;;;;17.10;1.00;;;;;;2259744;61;1114;-83
2023/06/14 01:13:35;155947.00;0.52;270.06;0.00;0.00;0.62;;;;;17.00;1.00;;;;;;2259297;61;1936;-82
2023/06/14 01:16:03;312619.00;1.04;539.61;10896.00;0.04;19.50;;;;;17.00;1.00;;;;;;2259078;61;1254;-82
2023/06/14 01:18:31;306370.00;1.02;528.87;0.00;0.00;0.62;;;;;17.10;1.00;;;;;;2259730;61;1137;-82
2023/06/14 01:20:57;535782.00;1.79;923.45;126185.00;0.42;218.75;;;;;17.00;1.00;;;;;;2259021;61;1154;-83
2023/06/14 01:23:32;276205.00;0.92;477.01;0.00;0.00;0.62;;;;;16.90;1.00;;;;;;2258755;61;1079;-82
2023/06/14 01:26:02;347935.00;1.16;600.31;0.00;0.00;0.62;;;;;16.80;1.00;;;;;;2259035;61;1373;-83
2023/06/14 01:28:33;596940.00;1.99;1028.94;27598.00;0.09;48.43;;;;;16.90;1.00;;;;;;2259684;61;1135;-82
2023/06/14 01:31:04;261311.00;0.87;451.40;0.00;0.00;0.62;;;;;16.90;1.00;;;;;;2258953;61;1149;-82
2023/06/14 01:33:33;449519.00;1.50;774.96;55158.00;0.18;96.11;;;;;16.80;1.00;;;;;;2259115;61;1931;-82
2023/06/14 01:36:02;238279.00;0.79;411.79;0.00;0.00;0.62;;;;;16.60;1.00;;;;;;2258872;61;1356;-83
2023/06/14 01:38:32;214289.00;0.71;370.52;0.00;0.00;0.62;;;;;16.60;1.00;;;;;;2258688;61;1143;-83
2023/06/14 01:41:01;289592.00;0.97;500.03;0.00;0.00;0.62;;;;;16.70;1.00;;;;;;2259154;61;1193;-81
2023/06/14 01:43:31;172620.00;0.58;298.78;0.00;0.00;0.62;;;;;16.80;1.00;;;;;;2259102;61;1121;-82
2023/06/14 01:46:00;300856.00;1.00;519.39;0.00;0.00;0.62;;;;;16.70;1.00;;;;;;2258507;61;2089;-82
2023/06/14 01:48:27;344550.00;1.15;594.49;0.00;0.00;0.62;;;;;16.60;1.00;;;;;;2258693;61;1169;-82
2023/06/14 01:50:54;207473.00;0.69;358.79;0.00;0.00;0.62;;;;;16.90;1.00;;;;;;2258695;61;1112;-83
2023/06/14 01:53:21;227881.00;0.76;393.90;0.00;0.00;0.62;;;;;16.90;1.00;;;;;;2258999;61;1936;-83
2023/06/14 01:55:49;270973.00;0.90;468.02;0.00;0.00;0.62;;;;;16.70;1.00;;;;;;2258926;61;1343;-83
2023/06/14 01:58:17;423945.00;1.41;730.97;59872.00;0.20;104.26;;;;;16.40;1.00;;;;;;2258827;61;1190;-83
2023/06/14 02:00:45;241447.00;0.80;417.24;0.00;0.00;0.62;;;;;16.30;1.00;;;;;;2258583;61;1174;-84
2023/06/14 02:03:12;192442.00;0.64;332.91;0.00;0.00;0.62;;;;;16.30;1.00;;;;;;2259052;61;1122;-85
2023/06/14 02:09:02;75843.00;0.25;131.86;0.00;0.00;0.62;;;;;16.20;1.00;;;;;;2258646;61;727;-83
2023/06/14 02:11:30;305402.00;1.02;527.21;0.00;0.00;0.62;;;;;16.10;1.00;;;;;;2258656;61;1206;-83
2023/06/14 02:13:59;197958.00;0.66;342.41;0.00;0.00;0.62;;;;;16.10;1.00;;;;;;2258471;61;2014;-82
2023/06/14 02:16:28;451227.00;1.50;777.89;29351.00;0.10;51.46;;;;;16.10;1.00;;;;;;2258451;61;1276;-82
2023/06/14 02:18:55;254074.00;0.85;438.96;0.00;0.00;0.62;;;;;16.20;1.00;;;;;;2258999;61;1047;-82
2023/06/14 02:21:22;339327.00;1.13;585.52;63436.00;0.21;110.42;;;;;16.20;1.00;;;;;;2259144;61;1086;-82
2023/06/14 02:23:48;230509.00;0.77;398.42;0.00;0.00;0.62;;;;;16.00;1.00;;;;;;2258936;61;1123;-83
2023/06/14 02:26:15;236671.00;0.79;409.02;0.00;0.00;0.62;;;;;16.00;1.00;;;;;;2258761;61;1275;-83
2023/06/14 02:28:44;184560.00;0.62;319.34;0.00;0.00;0.62;;;;;15.90;1.00;;;;;;2259036;61;1169;-83
2023/06/14 02:31:10;208011.00;0.69;359.71;0.00;0.00;0.62;;;;;15.90;1.00;;;;;;2259058;61;1060;-82
2023/06/14 02:33:37;231894.00;0.77;400.81;0.00;0.00;0.62;;;;;15.90;1.00;;;;;;2258784;61;1934;-83
2023/06/14 02:36:05;393706.00;1.31;678.99;26672.00;0.09;46.82;;;;;16.00;1.00;;;;;;2258640;61;1275;-83
2023/06/14 02:38:31;267035.00;0.89;461.25;0.00;0.00;0.62;;;;;16.00;1.00;;;;;;2260232;61;1155;-83
2023/06/14 02:40:59;364963.00;1.22;629.58;0.00;0.00;0.62;;;;;15.90;1.00;;;;;;2259002;61;1179;-83
2023/06/14 02:43:26;296074.00;0.99;511.17;0.00;0.00;0.62;;;;;15.90;1.00;;;;;;2260287;61;1122;-81
2023/06/14 02:45:54;283848.00;0.95;490.15;0.00;0.00;0.62;;;;;15.90;1.00;;;;;;2260756;61;1290;-83
2023/06/14 02:48:21;201375.00;0.67;348.29;0.00;0.00;0.62;;;;;15.70;1.00;;;;;;2258245;61;1127;-84
2023/06/14 02:50:48;286701.00;0.96;495.06;0.00;0.00;0.62;;;;;15.60;1.00;;;;;;2258211;61;1086;-84
2023/06/14 02:53:15;146893.00;0.49;254.45;0.00;0.00;0.62;;;;;15.60;1.00;;;;;;2258504;61;2022;-83
2023/06/14 02:55:42;158192.00;0.53;273.92;0.00;0.00;0.62;;;;;15.70;1.00;;;;;;2259256;61;1351;-83
2023/06/14 02:58:09;175043.00;0.58;302.95;0.00;0.00;0.62;;;;;15.80;1.00;;;;;;2259923;61;1154;-83
2023/06/14 03:00:38;394851.00;1.32;680.95;0.00;0.00;0.62;;;;;15.60;1.00;;;;;;2260435;61;1090;-82
2023/06/14 03:03:12;370763.00;1.24;639.55;26765.00;0.09;46.98;;;;;15.70;1.00;;;;;;2260594;61;1150;-82
2023/06/14 03:05:40;348862.00;1.16;601.91;34060.00;0.11;59.61;;;;;15.80;1.00;;;;;;2260038;61;1298;-82
2023/06/14 03:08:08;85872.00;0.29;149.18;0.00;0.00;0.62;;;;;15.70;1.00;;;;;;2259626;61;1111;-79
2023/06/14 03:10:35;212158.00;0.71;366.85;0.00;0.00;0.62;;;;;15.70;1.00;;;;;;2260333;61;1063;-83
2023/06/14 03:13:03;267594.00;0.89;462.21;0.00;0.00;0.62;;;;;15.80;1.00;;;;;;2260774;61;1923;-82
2023/06/14 03:15:31;243774.00;0.81;421.24;0.00;0.00;0.62;;;;;15.60;1.00;;;;;;2261394;61;1255;-82
2023/06/14 03:17:59;224857.00;0.75;388.70;0.00;0.00;0.62;;;;;15.50;1.00;;;;;;2261193;61;1165;-83
2023/06/14 03:20:32;336336.00;1.12;580.38;23356.00;0.08;41.08;;;;;15.40;1.00;;;;;;2259584;61;1610;-81
2023/06/14 03:22:59;171298.00;0.57;296.50;0.00;0.00;0.62;;;;;15.50;1.00;;;;;;2259585;61;1103;-82
2023/06/14 03:25:29;283505.00;0.95;489.56;11011.00;0.04;19.70;;;;;15.50;1.00;;;;;;2258589;61;1200;-83
2023/06/14 03:27:56;99048.00;0.33;171.93;0.00;0.00;0.62;;;;;15.50;1.00;;;;;;2258966;61;1159;-83
2023/06/14 03:30:22;422026.00;1.41;727.67;53077.00;0.18;92.51;;;;;15.40;1.00;;;;;;2258493;61;1235;-83
2023/06/14 03:32:50;171843.00;0.57;297.44;8152.00;0.03;14.75;;;;;15.30;1.00;;;;;;2260174;61;1919;-83
2023/06/14 03:35:17;208544.00;0.70;360.63;0.00;0.00;0.62;;;;;15.40;1.00;;;;;;2259199;61;1666;-83
2023/06/14 03:37:46;242614.00;0.81;419.25;0.00;0.00;0.62;;;;;16.20;1.00;;;;;;2259347;61;1263;-84
2023/06/14 06:18:27;392342.00;1.31;676.64;79736.00;0.27;138.58;;;;;31.90;1.00;;;;;;2475381;40;3444;31
2023/06/14 06:50:41;334483.00;1.11;577.19;0.00;0.00;0.62;;;;;34.20;1.00;;;;;;2324266;40;3479;-88
2023/06/14 07:22:51;183859.00;0.61;318.13;0.00;0.00;0.62;;;;;33.50;1.00;;;;;;2266919;61;1315;-91
2023/06/14 07:59:58;370034.00;1.23;638.30;0.00;0.00;0.62;;;;;34.80;1.00;;;;;;2266225;61;1404;-86
2023/06/14 08:12:19;609199.00;2.03;1050.11;77122.00;0.26;134.07;;;;;31.70;1.00;;;;;;1974308;40;3408;-88
2023/06/14 08:17:15;591437.00;1.97;1019.44;75606.00;0.25;131.45;;;;;31.10;1.00;;;;;;2266269;61;1397;-87
2023/06/14 08:24:39;310653.00;1.04;536.23;81182.00;0.27;141.08;;;;;31.30;1.00;;;;;;2266167;61;1391;-86
2023/06/14 08:27:06;212322.00;0.71;367.13;64640.00;0.22;112.50;;;;;30.10;1.00;;;;;;2264219;61;1601;-86
2023/06/14 08:29:33;281945.00;0.94;486.88;77513.00;0.26;134.74;;;;;29.40;1.00;;;;;;2264170;61;1595;-87
2023/06/14 08:36:57;457525.00;1.53;788.73;65943.00;0.22;114.75;;;;;30.90;1.00;;;;;;2265746;61;1408;-85
2023/06/14 08:39:24;268638.00;0.90;464.00;76479.00;0.25;132.95;;;;;30.70;1.00;;;;;;2263736;61;1121;-87
2023/06/14 08:41:53;241355.00;0.80;417.08;84814.00;0.28;147.35;;;;;30.00;1.00;;;;;;2264320;61;1118;-85
2023/06/14 08:44:20;70284.00;0.23;122.25;0.00;0.00;0.62;;;;;29.50;1.00;;;;;;2264293;61;1615;-85
2023/06/14 08:46:49;0.00;0.00;0.62;0.00;0.00;0.62;;;;;28.50;1.00;;;;;;2264337;61;1324;-87
2023/06/14 08:51:44;415324.00;1.38;716.15;34097.00;0.11;59.67;;;;;28.50;1.00;;;;;;2265945;61;1386;-88
2023/06/14 08:54:15;0.00;0.00;0.62;0.00;0.00;0.62;;;;;28.50;1.00;;;;;;2264255;61;1980;-86
2023/06/14 08:56:43;13810.00;0.05;24.55;0.00;0.00;0.62;;;;;28.90;1.00;;;;;;2263941;61;1396;-87
2023/06/14 08:59:11;53183.00;0.18;92.69;0.00;0.00;0.62;;;;;28.90;1.00;;;;;;2275797;55;3800;-86
2023/06/14 09:01:39;18731.00;0.06;33.07;0.00;0.00;0.62;;;;;28.60;1.00;;;;;;2268338;61;936;-87
2023/06/14 09:04:06;28573.00;0.10;50.11;0.00;0.00;0.62;;;;;28.40;1.00;;;;;;2268148;61;1043;-88
2023/06/14 09:06:33;19326.00;0.06;34.10;0.00;0.00;0.62;;;;;28.70;1.00;;;;;;2268080;61;1518;-87
2023/06/14 09:09:01;187935.00;0.63;325.15;109315.00;0.36;189.65;;;;;29.00;1.00;;;;;;2268099;61;1615;-87
2023/06/14 09:11:29;82523.00;0.28;143.40;0.00;0.00;0.62;;;;;28.30;1.00;;;;;;2322433;40;3739;-85
2023/06/14 09:13:56;0.00;0.00;0.62;0.00;0.00;0.62;;;;;28.60;1.00;;;;;;2268123;61;1986;-87
2023/06/14 09:18:51;110414.00;0.37;191.54;0.00;0.00;0.62;;;;;28.70;1.00;;;;;;2284609;40;3556;-84
2023/06/14 09:21:19;0.00;0.00;0.62;0.00;0.00;0.62;;;;;29.20;1.00;;;;;;2268068;61;1467;-87
2023/06/14 09:31:13;382991.00;1.28;660.57;36616.00;0.12;64.03;;;;;28.10;1.00;;;;;;2266049;61;1381;-87
2023/06/14 09:33:42;0.00;0.00;0.62;0.00;0.00;0.62;;;;;28.00;1.00;;;;;;2263930;61;1927;-86
2023/06/14 09:36:13;83368.00;0.28;144.85;0.00;0.00;0.62;;;;;27.80;1.00;;;;;;2263967;61;1400;-88
2023/06/14 09:41:08;592398.00;1.97;1021.10;0.00;0.00;0.62;;;;;26.80;1.00;;;;;;2307491;56;3621;-86
2023/06/14 09:43:41;195924.00;0.65;338.91;0.00;0.00;0.62;;;;;27.20;1.00;;;;;;2303805;40;3608;-88
2023/06/14 09:48:42;309604.00;1.03;534.43;0.00;0.00;0.62;;;;;27.50;1.00;;;;;;2261269;61;1313;-86
2023/06/14 09:51:11;99675.00;0.33;173.01;0.00;0.00;0.62;;;;;27.60;1.00;;;;;;2259935;61;1126;-86
2023/06/14 09:53:39;86210.00;0.29;149.76;0.00;0.00;0.62;;;;;27.60;1.00;;;;;;2259818;61;2006;-87
2023/06/14 09:58:40;325086.00;1.08;561.04;0.00;0.00;0.62;;;;;27.70;1.00;;;;;;2266099;61;1395;-88
2023/06/14 10:01:13;191548.00;0.64;331.37;46677.00;0.16;81.44;;;;;27.40;1.00;;;;;;2268208;55;3785;-89
2023/06/14 10:03:44;0.00;0.00;0.62;0.00;0.00;0.62;;;;;27.50;1.00;;;;;;2291477;55;3794;-88
2023/06/14 10:06:12;43435.00;0.14;75.83;0.00;0.00;0.62;;;;;27.40;1.00;;;;;;2268088;61;1357;-88
2023/06/14 10:08:40;32659.00;0.11;57.19;0.00;0.00;0.62;;;;;27.10;1.00;;;;;;2267926;61;1531;-87
2023/06/14 10:13:36;111158.00;0.37;192.83;0.00;0.00;0.62;;;;;26.30;1.00;;;;;;2265676;61;1907;-84
2023/06/14 10:16:13;70418.00;0.23;122.48;0.00;0.00;0.62;;;;;26.90;1.00;;;;;;2264062;61;1335;-85
2023/06/14 10:18:50;33591.00;0.11;58.80;0.00;0.00;0.62;;;;;27.00;1.00;;;;;;2263949;61;960;-85
2023/06/14 10:21:24;299807.00;1.00;517.59;36099.00;0.12;63.14;;;;;26.50;1.00;;;;;;2264020;61;2190;-85
2023/06/14 10:23:52;0.00;0.00;0.62;0.00;0.00;0.62;;;;;26.70;1.00;;;;;;2264041;61;925;-87
2023/06/14 10:26:24;158419.00;0.53;274.32;60920.00;0.20;106.07;;;;;27.30;1.00;;;;;;2263943;61;1628;-88
2023/06/14 10:28:59;21961.00;0.07;38.67;0.00;0.00;0.62;;;;;27.70;1.00;;;;;;2264016;61;1032;-87
2023/06/14 10:31:42;0.00;0.00;0.62;0.00;0.00;0.62;;;;;27.90;1.00;;;;;;2264017;61;1177;-86
2023/06/14 10:34:11;31027.00;0.10;54.36;0.00;0.00;0.62;;;;;27.40;1.00;;;;;;2264011;61;1989;-86
2023/06/14 10:36:41;288040.00;0.96;497.36;78116.00;0.26;135.78;;;;;26.70;1.00;;;;;;2263892;61;1440;-86
2023/06/14 10:39:18;214372.00;0.71;370.66;81158.00;0.27;141.04;;;;;27.00;1.00;;;;;;2264002;61;1133;-88
2023/06/14 10:44:55;624965.00;2.08;1077.35;80858.00;0.27;140.52;;;;;27.50;1.00;;;;;;2265614;61;1401;-85
2023/06/14 10:47:27;311348.00;1.04;537.43;17942.00;0.06;31.71;;;;;27.90;1.00;;;;;;2264697;61;1441;-87
2023/06/14 10:49:57;203622.00;0.68;352.16;0.00;0.00;0.62;;;;;27.70;1.00;;;;;;2264585;61;1053;-86
2023/06/14 10:52:27;7323.00;0.02;13.31;0.00;0.00;0.62;;;;;27.60;1.00;;;;;;2273874;55;3803;-86
2023/06/14 10:55:17;8437.00;0.03;15.24;0.00;0.00;0.62;;;;;27.00;1.00;;;;;;2268579;61;2012;-86
2023/06/14 10:57:47;26648.00;0.09;46.78;0.00;0.00;0.62;;;;;26.60;1.00;;;;;;2268619;61;1388;-87
2023/06/14 11:00:22;0.00;0.00;0.62;0.00;0.00;0.62;;;;;26.90;1.00;;;;;;2268581;61;1016;-86
2023/06/14 11:03:21;2961.00;0.01;5.75;0.00;0.00;0.62;;;;;26.90;1.00;;;;;;2268643;61;1181;-87
2023/06/14 11:05:54;31684.00;0.11;55.50;0.00;0.00;0.62;;;;;27.20;1.00;;;;;;2268612;61;1333;-85
2023/06/14 11:08:51;24503.00;0.08;43.07;0.00;0.00;0.62;;;;;27.90;1.00;;;;;;2268555;61;1600;-86
2023/06/14 11:11:19;39750.00;0.13;69.46;0.00;0.00;0.62;;;;;28.00;1.00;;;;;;2268646;61;1160;-87
2023/06/14 11:13:47;0.00;0.00;0.62;0.00;0.00;0.62;;;;;28.40;1.00;;;;;;2268465;61;1922;-85
2023/06/14 11:23:40;168502.00;0.56;291.69;0.00;0.00;0.62;;;;;29.00;1.00;;;;;;2266434;61;1197;-88
2023/06/14 11:26:07;36919.00;0.12;64.56;0.00;0.00;0.62;;;;;29.20;1.00;;;;;;2268784;55;3795;-88
2023/06/14 11:28:39;7927.00;0.03;14.36;0.00;0.00;0.62;;;;;29.10;1.00;;;;;;2268444;61;1631;-88
2023/06/14 11:31:06;53046.00;0.18;92.45;0.00;0.00;0.62;;;;;29.20;1.00;;;;;;2268533;61;1445;-89
2023/06/14 11:33:33;50126.00;0.17;87.40;0.00;0.00;0.62;;;;;28.70;1.00;;;;;;2268553;61;1918;-89
2023/06/14 11:36:04;14951.00;0.05;26.53;0.00;0.00;0.62;;;;;28.20;1.00;;;;;;2268428;61;1371;-86
2023/06/14 11:38:31;71887.00;0.24;125.02;0.00;0.00;0.62;;;;;27.80;1.00;;;;;;2275450;55;3818;-84
2023/06/14 11:41:01;131854.00;0.44;228.53;0.00;0.00;0.62;;;;;27.50;1.00;;;;;;2268542;61;1651;-88
2023/06/14 11:43:31;327195.00;1.09;564.66;45015.00;0.15;78.56;;;;;26.70;1.00;;;;;;2268637;61;1015;-88
2023/06/14 11:45:58;214547.00;0.72;370.96;8866.00;0.03;15.98;;;;;26.80;1.00;;;;;;2268388;61;1578;-87
2023/06/14 11:48:37;17259.00;0.06;30.52;0.00;0.00;0.62;;;;;27.40;1.00;;;;;;2268533;61;1244;-87
2023/06/14 11:51:04;27205.00;0.09;47.74;0.00;0.00;0.62;;;;;27.20;1.00;;;;;;2268580;61;1022;-86
2023/06/14 11:53:31;132709.00;0.44;230.00;0.00;0.00;0.62;;;;;26.90;1.00;;;;;;2268485;61;1923;-89
2023/06/14 11:55:58;0.00;0.00;0.62;0.00;0.00;0.62;;;;;27.10;1.00;;;;;;2268434;61;1696;-88
2023/06/14 11:58:28;0.00;0.00;0.62;0.00;0.00;0.62;;;;;27.10;1.00;;;;;;2280401;55;3784;-86
2023/06/14 12:03:25;205050.00;0.68;354.62;0.00;0.00;0.62;;;;;28.30;1.00;;;;;;2265948;61;1366;-88
2023/06/14 12:06:02;61981.00;0.21;107.90;0.00;0.00;0.62;;;;;28.60;1.00;;;;;;2297911;40;3657;-87
2023/06/14 12:08:38;15195.00;0.05;26.95;0.00;0.00;0.62;;;;;28.20;1.00;;;;;;2268369;61;1758;-87
2023/06/14 12:11:05;69499.00;0.23;120.89;0.00;0.00;0.62;;;;;27.70;1.00;;;;;;2281469;40;3635;-87
2023/06/14 12:13:35;66648.00;0.22;115.97;0.00;0.00;0.62;;;;;27.40;1.00;;;;;;2268160;61;1932;-87
2023/06/14 12:18:35;448189.00;1.49;772.67;0.00;0.00;0.62;;;;;26.50;1.00;;;;;;2262384;61;1246;-88
2023/06/14 12:21:04;296208.00;0.99;511.40;15490.00;0.05;27.46;;;;;27.00;1.00;;;;;;2269486;40;3635;-86
2023/06/14 12:23:44;75003.00;0.25;130.40;0.00;0.00;0.62;;;;;27.30;1.00;;;;;;2268305;61;1706;-88
2023/06/14 12:26:14;50911.00;0.17;88.76;0.00;0.00;0.62;;;;;27.30;1.00;;;;;;2268310;61;2382;-86
2023/06/14 12:28:43;3108.00;0.01;6.01;0.00;0.00;0.62;;;;;28.10;1.00;;;;;;2268202;61;1584;-87
2023/06/14 12:38:34;182032.00;0.61;314.99;0.00;0.00;0.62;;;;;27.90;1.00;;;;;;2265792;61;1407;-88
2023/06/14 12:43:29;185900.00;0.62;321.65;0.00;0.00;0.62;;;;;27.50;1.00;;;;;;2266109;61;1480;-87
2023/06/14 12:45:57;23503.00;0.08;41.34;0.00;0.00;0.62;;;;;26.90;1.00;;;;;;2264187;61;1356;-86
2023/06/14 12:48:24;38483.00;0.13;67.26;0.00;0.00;0.62;;;;;26.80;1.00;;;;;;2264103;61;1727;-85
2023/06/14 12:50:51;126850.00;0.42;219.90;0.00;0.00;0.62;;;;;27.00;1.00;;;;;;2282446;56;3776;-86
2023/06/14 12:53:18;11409.00;0.04;20.39;0.00;0.00;0.62;;;;;27.20;1.00;;;;;;2268083;61;1665;-86
2023/06/14 12:55:45;29098.00;0.10;51.02;0.00;0.00;0.62;;;;;27.50;1.00;;;;;;2267842;61;1931;-87
2023/06/14 13:00:45;496449.00;1.65;855.71;128743.00;0.43;223.16;;;;;27.90;1.00;;;;;;2265893;61;1421;-86
2023/06/14 13:03:13;125603.00;0.42;217.75;0.00;0.00;0.62;;;;;27.50;1.00;;;;;;2264234;61;1482;-87
2023/06/14 13:08:10;344728.00;1.15;594.80;0.00;0.00;0.62;;;;;27.50;1.00;;;;;;2265535;61;1400;-86
2023/06/14 13:10:37;30478.00;0.10;53.41;0.00;0.00;0.62;;;;;28.30;1.00;;;;;;2263862;61;1453;-87
2023/06/14 13:13:04;0.00;0.00;0.62;0.00;0.00;0.62;;;;;28.20;1.00;;;;;;2264220;61;1078;-86
2023/06/14 13:15:31;61307.00;0.20;106.74;0.00;0.00;0.62;;;;;27.10;1.00;;;;;;2264195;61;1998;-86
2023/06/14 13:17:58;0.00;0.00;0.62;0.00;0.00;0.62;;;;;26.70;1.00;;;;;;2274272;55;3807;-86
2023/06/14 13:20:26;12806.00;0.04;22.81;0.00;0.00;0.62;;;;;26.80;1.00;;;;;;2268155;61;1603;-87
2023/06/14 13:22:53;108105.00;0.36;187.56;0.00;0.00;0.62;;;;;27.10;1.00;;;;;;2268121;61;989;-89
2023/06/14 13:27:49;227336.00;0.76;392.97;0.00;0.00;0.62;;;;;27.90;1.00;;;;;;2270740;55;3708;-87
2023/06/14 13:30:16;231428.00;0.77;400.01;47635.00;0.16;83.10;;;;;28.20;1.00;;;;;;2345844;41;3639;-86
2023/06/14 13:42:36;207632.00;0.69;359.06;0.00;0.00;0.62;;;;;27.50;1.00;;;;;;2265881;61;1385;-88
2023/06/14 13:45:05;23434.00;0.08;41.22;0.00;0.00;0.62;;;;;27.10;1.00;;;;;;2264026;61;1462;-88
2023/06/14 13:49:59;337849.00;1.13;582.98;0.00;0.00;0.62;;;;;27.40;1.00;;;;;;2339301;40;3692;-86
2023/06/14 14:02:21;220464.00;0.73;381.14;0.00;0.00;0.62;;;;;27.80;1.00;;;;;;2289206;55;3682;-84
2023/06/14 14:04:52;49037.00;0.16;85.52;0.00;0.00;0.62;;;;;27.70;1.00;;;;;;2267752;61;1641;-88
2023/06/14 14:07:20;0.00;0.00;0.62;0.00;0.00;0.62;;;;;27.50;1.00;;;;;;2268014;61;1408;-87
2023/06/14 14:09:47;54417.00;0.18;94.82;0.00;0.00;0.62;;;;;27.00;1.00;;;;;;2268122;61;1141;-86
2023/06/14 14:12:14;140801.00;0.47;243.95;0.00;0.00;0.62;;;;;26.50;1.00;;;;;;2274609;56;3774;-88
2023/06/14 14:14:41;143996.00;0.48;249.46;0.00;0.00;0.62;;;;;26.60;1.00;;;;;;2267962;61;1989;-89
2023/06/14 14:17:09;192646.00;0.64;333.26;54996.00;0.18;95.83;;;;;26.30;1.00;;;;;;2267990;61;1279;-87
2023/06/14 14:19:37;18950.00;0.06;33.45;0.00;0.00;0.62;;;;;26.10;1.00;;;;;;2268087;61;1596;-87
2023/06/14 14:22:05;165508.00;0.55;286.53;0.00;0.00;0.62;;;;;26.50;1.00;;;;;;2270112;55;3773;-87
2023/06/14 14:24:32;116637.00;0.39;202.28;0.00;0.00;0.62;;;;;26.10;1.00;;;;;;2267580;61;1789;-88
2023/06/14 14:27:00;44421.00;0.15;77.54;0.00;0.00;0.62;;;;;26.30;1.00;;;;;;2267961;61;1392;-86
2023/06/14 14:29:28;78224.00;0.26;135.97;0.00;0.00;0.62;;;;;26.60;1.00;;;;;;2267990;61;1071;-86
2023/06/14 14:34:34;265335.00;0.88;458.32;46938.00;0.16;81.89;;;;;27.40;1.00;;;;;;2265560;61;1966;-86
2023/06/14 14:37:03;131023.00;0.44;227.09;0.00;0.00;0.62;;;;;27.20;1.00;;;;;;2274363;56;3712;-85
2023/06/14 14:39:30;80722.00;0.27;140.28;0.00;0.00;0.62;;;;;27.40;1.00;;;;;;2267901;61;2355;-87
2023/06/14 14:41:57;150927.00;0.50;261.41;0.00;0.00;0.62;;;;;27.70;1.00;;;;;;2267845;61;1019;-87
2023/06/14 14:44:24;46858.00;0.16;81.75;0.00;0.00;0.62;;;;;28.00;1.00;;;;;;2267721;61;1730;-86
2023/06/14 14:46:51;60407.00;0.20;105.18;0.00;0.00;0.62;;;;;27.70;1.00;;;;;;2267873;61;1306;-86
2023/06/14 14:49:18;31072.00;0.10;54.44;0.00;0.00;0.62;;;;;27.20;1.00;;;;;;2267727;61;2088;-86
2023/06/14 14:54:14;244551.00;0.82;422.58;0.00;0.00;0.62;;;;;27.40;1.00;;;;;;2265397;61;1972;-86
2023/06/14 14:56:41;72801.00;0.24;126.60;0.00;0.00;0.62;;;;;27.00;1.00;;;;;;2270317;55;3741;-86
2023/06/14 14:59:08;0.00;0.00;0.62;0.00;0.00;0.62;;;;;26.40;1.00;;;;;;2267931;61;1144;-86
2023/06/14 15:01:40;34877.00;0.12;61.02;0.00;0.00;0.62;;;;;26.60;1.00;;;;;;2267974;61;1200;-86
2023/06/14 15:04:07;0.00;0.00;0.62;0.00;0.00;0.62;;;;;26.60;1.00;;;;;;2267821;61;1558;-87
2023/06/14 15:06:35;92310.00;0.31;160.30;0.00;0.00;0.62;;;;;26.60;1.00;;;;;;2267674;61;1494;-86
2023/06/14 15:09:02;38430.00;0.13;67.17;0.00;0.00;0.62;;;;;26.40;1.00;;;;;;2267921;61;1759;-86
2023/06/14 15:11:31;12444.00;0.04;22.18;0.00;0.00;0.62;;;;;26.40;1.00;;;;;;2270038;40;3628;-86
2023/06/14 15:13:59;197150.00;0.66;341.02;0.00;0.00;0.62;;;;;26.60;1.00;;;;;;2327572;40;3637;-87
2023/06/14 15:18:53;264824.00;0.88;457.44;0.00;0.00;0.62;;;;;27.30;1.00;;;;;;2265756;61;1401;-84
2023/06/14 15:31:13;468559.00;1.56;807.71;42875.00;0.14;74.86;;;;;27.50;1.00;;;;;;2326480;56;3657;-86
2023/06/14 15:33:41;17435.00;0.06;30.83;0.00;0.00;0.62;;;;;27.60;1.00;;;;;;2287635;55;3828;-86
2023/06/14 15:38:35;357895.00;1.19;617.43;0.00;0.00;0.62;;;;;27.70;1.00;;;;;;2266436;61;1509;-88
2023/06/14 15:43:30;222383.00;0.74;384.44;0.00;0.00;0.62;;;;;28.60;1.00;;;;;;2266073;61;1418;-86
2023/06/14 15:48:26;390999.00;1.30;674.33;0.00;0.00;0.62;;;;;27.60;1.00;;;;;;2280166;55;3734;-88
2023/06/14 15:50:53;143003.00;0.48;247.75;0.00;0.00;0.62;;;;;26.80;1.00;;;;;;2268207;61;2235;-88
2023/06/14 15:53:20;45535.00;0.15;79.46;0.00;0.00;0.62;;;;;26.40;1.00;;;;;;2268250;61;1552;-87
2023/06/14 15:55:47;132678.00;0.44;229.95;45246.00;0.15;78.96;;;;;26.70;1.00;;;;;;2268075;61;1924;-87
2023/06/14 15:58:14;85173.00;0.28;147.97;0.00;0.00;0.62;;;;;26.50;1.00;;;;;;2268133;61;1065;-89
2023/06/14 16:00:41;0.00;0.00;0.62;0.00;0.00;0.62;;;;;26.60;1.00;;;;;;2268219;61;883;-88
2023/06/14 16:03:08;75008.00;0.25;130.41;0.00;0.00;0.62;;;;;26.50;1.00;;;;;;2268309;61;918;-87
2023/06/14 16:05:36;142600.00;0.48;247.05;0.00;0.00;0.62;;;;;26.40;1.00;;;;;;2255877;56;1173549;-87
2023/06/14 16:08:03;7401.00;0.02;13.45;0.00;0.00;0.62;;;;;26.50;1.00;;;;;;2268396;61;1290;-87
2023/06/14 16:10:30;36741.00;0.12;64.25;0.00;0.00;0.62;;;;;26.40;1.00;;;;;;2268419;61;1592;-87
2023/06/14 16:12:57;212020.00;0.71;366.61;0.00;0.00;0.62;;;;;26.70;1.00;;;;;;2268282;61;1428;-87
2023/06/14 16:17:53;208963.00;0.70;361.35;0.00;0.00;0.62;;;;;26.80;1.00;;;;;;2278614;55;3680;-87
2023/06/14 16:20:20;355601.00;1.19;613.49;154002.00;0.51;266.70;;;;;26.70;1.00;;;;;;2295748;55;3769;-86
2023/06/14 16:25:17;254872.00;0.85;440.33;0.00;0.00;0.62;;;;;27.00;1.00;;;;;;2265704;61;1418;-87
2023/06/14 16:27:43;81931.00;0.27;142.37;0.00;0.00;0.62;;;;;27.30;1.00;;;;;;2264063;61;1471;-85
2023/06/14 16:32:38;166155.00;0.55;287.64;0.00;0.00;0.62;;;;;27.10;1.00;;;;;;2275758;40;3665;-84
2023/06/14 16:40:02;264878.00;0.88;457.54;0.00;0.00;0.62;;;;;27.10;1.00;;;;;;2335092;40;3475;-86